createdAt,value
2017-05-13T00:00:14.519Z,18.28
2017-05-13T00:00:40.620Z,18.28
2017-05-13T00:01:06.714Z,18.38
2017-05-13T00:01:32.864Z,18.37
2017-05-13T00:01:58.972Z,18.33
2017-05-13T00:02:25.085Z,18.4
2017-05-13T00:02:51.235Z,18.4
2017-05-13T00:03:17.369Z,18.41
2017-05-13T00:03:43.459Z,18.4
2017-05-13T00:04:09.563Z,18.38
2017-05-13T00:04:35.654Z,18.43
2017-05-13T00:05:01.785Z,18.4
2017-05-13T00:05:27.893Z,18.4
2017-05-13T00:05:54.001Z,18.45
2017-05-13T00:06:20.101Z,18.53
2017-05-13T00:06:46.207Z,18.5
2017-05-13T00:07:12.321Z,18.52
2017-05-13T00:07:38.467Z,18.52
2017-05-13T00:08:04.600Z,18.45
2017-05-13T00:08:30.694Z,18.5
2017-05-13T00:08:56.809Z,18.4
2017-05-13T00:09:22.917Z,18.41
2017-05-13T00:09:49.093Z,18.41
2017-05-13T00:10:15.208Z,18.29
2017-05-13T00:10:41.313Z,18.33
2017-05-13T00:11:07.415Z,18.26
2017-05-13T00:11:33.554Z,18.35
2017-05-13T00:11:59.682Z,18.41
2017-05-13T00:12:25.789Z,18.26
2017-05-13T00:12:51.902Z,18.31
2017-05-13T00:13:18.050Z,18.35
2017-05-13T00:13:44.158Z,18.29
2017-05-13T00:14:10.278Z,18.25
2017-05-13T00:14:36.399Z,18.19
2017-05-13T00:15:02.571Z,18.22
2017-05-13T00:15:28.697Z,18.29
2017-05-13T00:15:54.832Z,18.25
2017-05-13T00:16:20.922Z,18.25
2017-05-13T00:16:47.045Z,18.26
2017-05-13T00:17:13.208Z,18.2
2017-05-13T00:17:39.300Z,18.19
2017-05-13T00:18:05.445Z,18.08
2017-05-13T00:18:31.577Z,18.1
2017-05-13T00:18:57.695Z,18.1
2017-05-13T00:19:23.836Z,18
2017-05-13T00:19:49.993Z,18.04
2017-05-13T00:20:16.089Z,18
2017-05-13T00:20:42.221Z,17.98
2017-05-13T00:21:08.311Z,17.95
2017-05-13T00:21:34.410Z,17.97
2017-05-13T00:22:00.540Z,18.01
2017-05-13T00:22:26.635Z,18.04
2017-05-13T00:22:52.726Z,18.13
2017-05-13T00:23:18.886Z,18
2017-05-13T00:23:45.063Z,18
2017-05-13T00:24:11.178Z,17.97
2017-05-13T00:24:37.311Z,18.01
2017-05-13T00:25:03.410Z,18.01
2017-05-13T00:25:29.526Z,18.01
2017-05-13T00:25:55.653Z,18.01
2017-05-13T00:26:21.743Z,18.04
2017-05-13T00:26:47.876Z,18.05
2017-05-13T00:27:13.974Z,18.08
2017-05-13T00:27:40.091Z,18.01
2017-05-13T00:28:06.220Z,17.98
2017-05-13T00:28:32.346Z,17.97
2017-05-13T00:28:58.461Z,17.95
2017-05-13T00:29:24.565Z,17.92
2017-05-13T00:29:50.698Z,17.87
2017-05-13T00:30:16.787Z,17.85
2017-05-13T00:30:42.886Z,17.85
2017-05-13T00:31:08.993Z,17.85
2017-05-13T00:31:35.083Z,17.94
2017-05-13T00:32:01.187Z,17.86
2017-05-13T00:32:27.276Z,17.85
2017-05-13T00:32:53.379Z,17.86
2017-05-13T00:33:19.539Z,17.87
2017-05-13T00:33:45.699Z,17.78
2017-05-13T00:34:11.820Z,17.83
2017-05-13T00:34:37.980Z,17.8
2017-05-13T00:35:04.093Z,17.82
2017-05-13T00:35:30.189Z,17.78
2017-05-13T00:35:56.293Z,17.83
2017-05-13T00:36:22.386Z,17.79
2017-05-13T00:36:48.501Z,17.83
2017-05-13T00:37:14.603Z,17.76
2017-05-13T00:37:40.754Z,17.71
2017-05-13T00:38:06.889Z,17.72
2017-05-13T00:38:33.005Z,17.7
2017-05-13T00:38:59.130Z,17.57
2017-05-13T00:39:25.263Z,17.63
2017-05-13T00:39:51.358Z,17.57
2017-05-13T00:40:17.472Z,17.64
2017-05-13T00:40:43.606Z,17.51
2017-05-13T00:41:09.731Z,17.54
2017-05-13T00:41:35.823Z,17.51
2017-05-13T00:42:01.929Z,17.52
2017-05-13T00:42:28.111Z,17.48
2017-05-13T00:42:54.212Z,17.49
2017-05-13T00:43:20.306Z,17.6
2017-05-13T00:43:46.421Z,17.56
2017-05-13T00:44:12.554Z,17.68
2017-05-13T00:44:38.651Z,17.63
2017-05-13T00:45:04.791Z,17.68
2017-05-13T00:45:30.896Z,17.59
2017-05-13T00:45:56.997Z,17.57
2017-05-13T00:46:23.111Z,17.63
2017-05-13T00:46:49.265Z,17.64
2017-05-13T00:47:15.371Z,17.67
2017-05-13T00:47:41.458Z,17.63
2017-05-13T00:48:07.609Z,17.57
2017-05-13T00:48:33.756Z,17.57
2017-05-13T00:48:59.886Z,17.65
2017-05-13T00:49:26.041Z,17.78
2017-05-13T00:49:52.178Z,17.8
2017-05-13T00:50:18.282Z,17.71
2017-05-13T00:50:44.414Z,17.64
2017-05-13T00:51:10.577Z,17.63
2017-05-13T00:51:36.710Z,17.7
2017-05-13T00:52:02.836Z,17.71
2017-05-13T00:52:28.953Z,17.82
2017-05-13T00:52:55.049Z,17.83
2017-05-13T00:53:21.185Z,17.78
2017-05-13T00:53:47.306Z,17.86
2017-05-13T00:54:13.445Z,17.83
2017-05-13T00:54:39.579Z,17.79
2017-05-13T00:55:05.705Z,17.79
2017-05-13T00:55:31.819Z,17.8
2017-05-13T00:55:57.923Z,17.71
2017-05-13T00:56:24.048Z,17.79
2017-05-13T00:56:50.165Z,17.78
2017-05-13T00:57:16.269Z,17.82
2017-05-13T00:57:42.439Z,17.85
2017-05-13T00:58:08.554Z,17.85
2017-05-13T00:58:34.651Z,17.82
2017-05-13T00:59:00.756Z,17.82
2017-05-13T00:59:26.870Z,17.85
2017-05-13T00:59:53.000Z,17.78
2017-05-13T01:00:19.090Z,17.78
2017-05-13T01:00:45.192Z,17.7
2017-05-13T01:01:11.300Z,17.76
2017-05-13T01:01:37.386Z,17.59
2017-05-13T01:02:03.510Z,17.63
2017-05-13T01:02:29.616Z,17.64
2017-05-13T01:02:55.708Z,17.46
2017-05-13T01:03:21.857Z,17.49
2017-05-13T01:03:47.960Z,17.57
2017-05-13T01:04:14.108Z,17.49
2017-05-13T01:04:40.222Z,17.52
2017-05-13T01:05:06.404Z,17.48
2017-05-13T01:05:32.528Z,17.44
2017-05-13T01:05:58.689Z,17.33
2017-05-13T01:06:24.808Z,17.24
2017-05-13T01:06:50.904Z,17.27
2017-05-13T01:07:17.011Z,17.24
2017-05-13T01:07:43.160Z,17.24
2017-05-13T01:08:09.273Z,17.31
2017-05-13T01:08:35.381Z,17.29
2017-05-13T01:09:01.476Z,17.33
2017-05-13T01:09:27.617Z,17.34
2017-05-13T01:09:53.752Z,17.29
2017-05-13T01:10:19.880Z,17.38
2017-05-13T01:10:45.980Z,17.31
2017-05-13T01:11:12.126Z,17.42
2017-05-13T01:11:38.216Z,17.49
2017-05-13T01:12:04.325Z,17.48
2017-05-13T01:12:30.421Z,17.51
2017-05-13T01:12:56.561Z,17.49
2017-05-13T01:13:22.691Z,17.45
2017-05-13T01:13:48.818Z,17.48
2017-05-13T01:14:14.934Z,17.41
2017-05-13T01:14:41.060Z,17.46
2017-05-13T01:15:07.194Z,17.49
2017-05-13T01:15:33.309Z,17.46
2017-05-13T01:15:59.435Z,17.44
2017-05-13T01:16:25.528Z,17.42
2017-05-13T01:16:51.631Z,17.41
2017-05-13T01:17:17.761Z,17.29
2017-05-13T01:17:43.850Z,17.33
2017-05-13T01:18:10.004Z,17.38
2017-05-13T01:18:36.164Z,17.34
2017-05-13T01:19:02.277Z,17.3
2017-05-13T01:19:28.441Z,17.2
2017-05-13T01:19:54.537Z,17.16
2017-05-13T01:20:20.654Z,17.11
2017-05-13T01:20:46.749Z,16.99
2017-05-13T01:21:12.853Z,17.01
2017-05-13T01:21:38.947Z,17.04
2017-05-13T01:22:05.079Z,17.02
2017-05-13T01:22:31.190Z,17.11
2017-05-13T01:22:57.343Z,17.2
2017-05-13T01:23:23.449Z,17.15
2017-05-13T01:23:49.593Z,17.26
2017-05-13T01:24:15.715Z,17.22
2017-05-13T01:24:41.849Z,17.19
2017-05-13T01:25:07.993Z,17.3
2017-05-13T01:25:34.109Z,17.24
2017-05-13T01:26:00.218Z,17.29
2017-05-13T01:26:26.342Z,17.23
2017-05-13T01:26:52.431Z,17.29
2017-05-13T01:27:18.571Z,17.3
2017-05-13T01:27:44.657Z,17.2
2017-05-13T01:28:10.791Z,17.26
2017-05-13T01:28:36.911Z,17.23
2017-05-13T01:29:03.029Z,17.29
2017-05-13T01:29:29.185Z,17.29
2017-05-13T01:29:55.286Z,17.33
2017-05-13T01:30:21.419Z,17.36
2017-05-13T01:30:47.551Z,17.38
2017-05-13T01:31:13.651Z,17.39
2017-05-13T01:31:39.765Z,17.44
2017-05-13T01:32:05.872Z,17.48
2017-05-13T01:32:32.031Z,17.38
2017-05-13T01:32:58.126Z,17.51
2017-05-13T01:33:24.225Z,17.44
2017-05-13T01:33:50.338Z,17.33
2017-05-13T01:34:16.444Z,17.45
2017-05-13T01:34:42.544Z,17.45
2017-05-13T01:35:08.685Z,17.45
2017-05-13T01:35:34.817Z,17.42
2017-05-13T01:36:00.924Z,17.42
2017-05-13T01:36:27.063Z,17.41
2017-05-13T01:36:53.162Z,17.34
2017-05-13T01:37:19.268Z,17.31
2017-05-13T01:37:45.409Z,17.36
2017-05-13T01:38:11.506Z,17.33
2017-05-13T01:38:37.612Z,17.39
2017-05-13T01:39:03.705Z,17.33
2017-05-13T01:39:29.793Z,17.38
2017-05-13T01:39:55.904Z,17.36
2017-05-13T01:40:22.028Z,17.34
2017-05-13T01:40:48.142Z,17.34
2017-05-13T01:41:14.247Z,17.36
2017-05-13T01:41:40.346Z,17.36
2017-05-13T01:42:06.435Z,17.36
2017-05-13T01:42:32.539Z,17.44
2017-05-13T01:42:58.675Z,17.31
2017-05-13T01:43:24.814Z,17.29
2017-05-13T01:43:50.959Z,17.27
2017-05-13T01:44:17.054Z,17.34
2017-05-13T01:44:43.213Z,17.33
2017-05-13T01:45:09.310Z,17.33
2017-05-13T01:45:35.425Z,17.33
2017-05-13T01:46:01.607Z,17.38
2017-05-13T01:46:27.712Z,17.31
2017-05-13T01:46:53.823Z,17.36
2017-05-13T01:47:19.922Z,17.38
2017-05-13T01:47:46.057Z,17.33
2017-05-13T01:48:12.145Z,17.33
2017-05-13T01:48:38.269Z,17.29
2017-05-13T01:49:04.428Z,17.31
2017-05-13T01:49:30.547Z,17.3
2017-05-13T01:49:56.681Z,17.23
2017-05-13T01:50:22.769Z,17.23
2017-05-13T01:50:48.870Z,17.23
2017-05-13T01:51:15.006Z,17.23
2017-05-13T01:51:41.145Z,17.26
2017-05-13T01:52:07.242Z,17.24
2017-05-13T01:52:33.349Z,17.23
2017-05-13T01:52:59.474Z,17.26
2017-05-13T01:53:25.587Z,17.22
2017-05-13T01:53:51.751Z,17.19
2017-05-13T01:54:17.871Z,17.16
2017-05-13T01:54:44.013Z,17.08
2017-05-13T01:55:10.113Z,17.09
2017-05-13T01:55:36.206Z,17.11
2017-05-13T01:56:02.367Z,17.14
2017-05-13T01:56:28.459Z,17.12
2017-05-13T01:56:54.575Z,17.11
2017-05-13T01:57:20.683Z,17.12
2017-05-13T01:57:46.808Z,17.16
2017-05-13T01:58:12.900Z,17.14
2017-05-13T01:58:39.004Z,17.11
2017-05-13T01:59:05.134Z,17.12
2017-05-13T01:59:31.300Z,17.12
2017-05-13T01:59:57.455Z,17.04
2017-05-13T02:00:23.645Z,16.97
2017-05-13T02:00:49.763Z,17.02
2017-05-13T02:01:15.860Z,16.96
2017-05-13T02:01:41.976Z,16.9
2017-05-13T02:02:08.132Z,16.94
2017-05-13T02:02:34.259Z,16.87
2017-05-13T02:03:00.398Z,16.83
2017-05-13T02:03:26.528Z,16.87
2017-05-13T02:03:52.662Z,16.83
2017-05-13T02:04:18.772Z,16.83
2017-05-13T02:04:44.898Z,16.75
2017-05-13T02:05:11.006Z,16.79
2017-05-13T02:05:37.127Z,16.86
2017-05-13T02:06:03.248Z,16.75
2017-05-13T02:06:29.398Z,16.72
2017-05-13T02:06:55.502Z,16.74
2017-05-13T02:07:21.608Z,16.74
2017-05-13T02:07:47.717Z,16.84
2017-05-13T02:08:13.817Z,16.72
2017-05-13T02:08:39.923Z,16.71
2017-05-13T02:09:06.012Z,16.69
2017-05-13T02:09:32.110Z,16.71
2017-05-13T02:09:58.299Z,16.72
2017-05-13T02:10:24.391Z,16.74
2017-05-13T02:10:50.502Z,16.79
2017-05-13T02:11:16.610Z,16.76
2017-05-13T02:11:42.761Z,16.76
2017-05-13T02:12:08.887Z,16.71
2017-05-13T02:12:34.976Z,16.75
2017-05-13T02:13:01.123Z,16.75
2017-05-13T02:13:27.243Z,16.69
2017-05-13T02:13:53.389Z,16.72
2017-05-13T02:14:19.479Z,16.83
2017-05-13T02:14:45.642Z,16.81
2017-05-13T02:15:11.767Z,16.78
2017-05-13T02:15:37.857Z,16.81
2017-05-13T02:16:03.992Z,16.81
2017-05-13T02:16:30.119Z,16.75
2017-05-13T02:16:56.269Z,16.75
2017-05-13T02:17:22.372Z,16.78
2017-05-13T02:17:48.513Z,16.71
2017-05-13T02:18:14.678Z,16.76
2017-05-13T02:18:40.778Z,16.81
2017-05-13T02:19:06.894Z,16.78
2017-05-13T02:19:33.054Z,16.75
2017-05-13T02:19:59.182Z,16.79
2017-05-13T02:20:25.343Z,16.84
2017-05-13T02:20:51.447Z,16.78
2017-05-13T02:21:17.584Z,16.81
2017-05-13T02:21:43.671Z,16.78
2017-05-13T02:22:09.769Z,16.76
2017-05-13T02:22:35.875Z,16.75
2017-05-13T02:23:02.068Z,16.71
2017-05-13T02:23:28.164Z,16.78
2017-05-13T02:23:54.324Z,16.75
2017-05-13T02:24:20.470Z,16.75
2017-05-13T02:24:46.584Z,16.81
2017-05-13T02:25:12.721Z,16.81
2017-05-13T02:25:38.818Z,16.78
2017-05-13T02:26:04.911Z,16.78
2017-05-13T02:26:31.015Z,16.74
2017-05-13T02:26:57.237Z,16.72
2017-05-13T02:27:23.328Z,16.78
2017-05-13T02:27:49.489Z,16.71
2017-05-13T02:28:15.628Z,16.68
2017-05-13T02:28:41.754Z,16.72
2017-05-13T02:29:07.851Z,16.69
2017-05-13T02:29:33.941Z,16.72
2017-05-13T02:30:00.077Z,16.76
2017-05-13T02:30:26.221Z,16.75
2017-05-13T02:30:52.324Z,16.71
2017-05-13T02:31:18.442Z,16.71
2017-05-13T02:31:44.546Z,16.58
2017-05-13T02:32:10.655Z,16.6
2017-05-13T02:32:36.806Z,16.65
2017-05-13T02:33:02.971Z,16.57
2017-05-13T02:33:29.065Z,16.66
2017-05-13T02:33:55.203Z,16.71
2017-05-13T02:34:21.332Z,16.64
2017-05-13T02:34:47.438Z,16.75
2017-05-13T02:35:13.548Z,16.74
2017-05-13T02:35:39.636Z,16.78
2017-05-13T02:36:05.738Z,16.74
2017-05-13T02:36:31.869Z,16.81
2017-05-13T02:36:58.020Z,16.81
2017-05-13T02:37:24.116Z,16.75
2017-05-13T02:37:50.222Z,16.74
2017-05-13T02:38:16.315Z,16.74
2017-05-13T02:38:42.438Z,16.76
2017-05-13T02:39:08.572Z,16.66
2017-05-13T02:39:34.722Z,16.69
2017-05-13T02:40:00.852Z,16.69
2017-05-13T02:40:26.943Z,16.75
2017-05-13T02:40:53.039Z,16.72
2017-05-13T02:41:19.175Z,16.68
2017-05-13T02:41:45.294Z,16.71
2017-05-13T02:42:11.383Z,16.75
2017-05-13T02:42:37.520Z,16.79
2017-05-13T02:43:03.642Z,16.66
2017-05-13T02:43:29.755Z,16.65
2017-05-13T02:43:55.889Z,16.68
2017-05-13T02:44:22.045Z,16.64
2017-05-13T02:44:48.161Z,16.53
2017-05-13T02:45:14.291Z,16.72
2017-05-13T02:45:40.394Z,16.65
2017-05-13T02:46:06.505Z,16.64
2017-05-13T02:46:32.654Z,16.6
2017-05-13T02:46:58.793Z,16.71
2017-05-13T02:47:24.923Z,16.68
2017-05-13T02:47:51.023Z,16.78
2017-05-13T02:48:17.113Z,16.72
2017-05-13T02:48:43.238Z,16.75
2017-05-13T02:49:09.343Z,16.74
2017-05-13T02:49:35.457Z,16.66
2017-05-13T02:50:01.583Z,16.74
2017-05-13T02:50:27.715Z,16.78
2017-05-13T02:50:53.830Z,16.72
2017-05-13T02:51:19.931Z,16.66
2017-05-13T02:51:46.026Z,16.64
2017-05-13T02:52:12.156Z,16.68
2017-05-13T02:52:38.262Z,16.65
2017-05-13T02:53:04.365Z,16.6
2017-05-13T02:53:30.507Z,16.58
2017-05-13T02:53:56.613Z,16.72
2017-05-13T02:54:22.729Z,16.72
2017-05-13T02:54:48.825Z,16.56
2017-05-13T02:55:14.931Z,16.6
2017-05-13T02:55:41.024Z,16.56
2017-05-13T02:56:07.114Z,16.57
2017-05-13T02:56:33.219Z,16.53
2017-05-13T02:56:59.318Z,16.5
2017-05-13T02:57:28.542Z,16.5
2017-05-13T02:57:54.641Z,16.57
2017-05-13T02:58:20.782Z,16.57
2017-05-13T02:58:46.928Z,16.57
2017-05-13T02:59:13.048Z,16.56
2017-05-13T02:59:39.209Z,16.58
2017-05-13T03:00:05.394Z,16.51
2017-05-13T03:00:31.522Z,16.51
2017-05-13T03:00:57.650Z,16.42
2017-05-13T03:01:23.753Z,16.6
2017-05-13T03:01:49.852Z,16.53
2017-05-13T03:02:15.978Z,16.51
2017-05-13T03:02:42.083Z,16.46
2017-05-13T03:03:08.223Z,16.49
2017-05-13T03:03:34.413Z,16.41
2017-05-13T03:04:00.536Z,16.47
2017-05-13T03:04:26.628Z,16.38
2017-05-13T03:04:52.767Z,16.38
2017-05-13T03:05:18.870Z,16.33
2017-05-13T03:05:44.983Z,16.41
2017-05-13T03:06:11.084Z,16.39
2017-05-13T03:06:37.201Z,16.46
2017-05-13T03:07:03.317Z,16.49
2017-05-13T03:07:29.440Z,16.49
2017-05-13T03:07:55.553Z,16.46
2017-05-13T03:08:21.642Z,16.41
2017-05-13T03:08:47.743Z,16.36
2017-05-13T03:09:13.917Z,16.35
2017-05-13T03:09:40.098Z,16.39
2017-05-13T03:10:06.227Z,16.28
2017-05-13T03:10:32.351Z,16.35
2017-05-13T03:10:58.475Z,16.26
2017-05-13T03:11:24.597Z,16.23
2017-05-13T03:11:50.700Z,16.13
2017-05-13T03:12:16.802Z,16.32
2017-05-13T03:12:42.898Z,16.24
2017-05-13T03:13:09.048Z,16.29
2017-05-13T03:13:35.154Z,16.29
2017-05-13T03:14:01.254Z,16.35
2017-05-13T03:14:27.355Z,16.47
2017-05-13T03:14:53.483Z,16.46
2017-05-13T03:15:19.634Z,16.33
2017-05-13T03:15:45.776Z,16.47
2017-05-13T03:16:11.889Z,16.41
2017-05-13T03:16:37.991Z,16.51
2017-05-13T03:17:04.141Z,16.53
2017-05-13T03:17:30.239Z,16.57
2017-05-13T03:17:56.340Z,16.46
2017-05-13T03:18:22.451Z,16.38
2017-05-13T03:18:48.679Z,16.41
2017-05-13T03:19:14.762Z,16.36
2017-05-13T03:19:40.914Z,16.32
2017-05-13T03:20:07.062Z,16.38
2017-05-13T03:20:33.236Z,16.39
2017-05-13T03:20:59.335Z,16.41
2017-05-13T03:21:25.454Z,16.39
2017-05-13T03:21:51.560Z,16.39
2017-05-13T03:22:17.653Z,16.35
2017-05-13T03:22:43.813Z,16.36
2017-05-13T03:23:10.018Z,16.36
2017-05-13T03:23:36.192Z,16.38
2017-05-13T03:24:02.289Z,16.43
2017-05-13T03:24:28.464Z,16.38
2017-05-13T03:24:54.624Z,16.49
2017-05-13T03:25:20.731Z,16.41
2017-05-13T03:25:46.821Z,16.38
2017-05-13T03:26:12.926Z,16.5
2017-05-13T03:26:39.033Z,16.46
2017-05-13T03:27:05.217Z,16.43
2017-05-13T03:27:31.331Z,16.41
2017-05-13T03:27:57.487Z,16.33
2017-05-13T03:28:23.699Z,16.38
2017-05-13T03:28:49.822Z,16.38
2017-05-13T03:29:15.984Z,16.33
2017-05-13T03:29:42.141Z,16.36
2017-05-13T03:30:08.342Z,16.39
2017-05-13T03:30:34.441Z,16.41
2017-05-13T03:31:00.558Z,16.35
2017-05-13T03:31:26.668Z,16.36
2017-05-13T03:31:52.824Z,16.26
2017-05-13T03:32:18.961Z,16.24
2017-05-13T03:32:45.068Z,16.29
2017-05-13T03:33:11.168Z,16.23
2017-05-13T03:33:37.259Z,16.28
2017-05-13T03:34:03.413Z,16.33
2017-05-13T03:34:29.544Z,16.38
2017-05-13T03:34:55.703Z,16.32
2017-05-13T03:35:21.829Z,16.28
2017-05-13T03:35:47.922Z,16.39
2017-05-13T03:36:14.029Z,16.41
2017-05-13T03:36:40.126Z,16.41
2017-05-13T03:37:06.238Z,16.42
2017-05-13T03:37:32.341Z,16.41
2017-05-13T03:37:58.447Z,16.42
2017-05-13T03:38:24.604Z,16.36
2017-05-13T03:38:50.663Z,16.42
2017-05-13T03:39:16.795Z,16.41
2017-05-13T03:39:42.912Z,16.42
2017-05-13T03:40:09.033Z,16.38
2017-05-13T03:40:35.136Z,16.43
2017-05-13T03:41:01.231Z,16.46
2017-05-13T03:41:27.338Z,16.47
2017-05-13T03:41:53.471Z,16.43
2017-05-13T03:42:19.620Z,16.43
2017-05-13T03:42:45.728Z,16.5
2017-05-13T03:43:11.894Z,16.41
2017-05-13T03:43:38.066Z,16.38
2017-05-13T03:44:04.228Z,16.47
2017-05-13T03:44:30.323Z,16.5
2017-05-13T03:44:56.462Z,16.35
2017-05-13T03:45:22.600Z,16.39
2017-05-13T03:45:48.727Z,16.38
2017-05-13T03:46:14.811Z,16.39
2017-05-13T03:46:40.919Z,16.43
2017-05-13T03:47:07.013Z,16.43
2017-05-13T03:47:33.120Z,16.51
2017-05-13T03:47:59.237Z,16.41
2017-05-13T03:48:25.324Z,16.43
2017-05-13T03:48:51.488Z,16.43
2017-05-13T03:49:17.608Z,16.49
2017-05-13T03:49:43.696Z,16.47
2017-05-13T03:50:09.830Z,16.53
2017-05-13T03:50:35.928Z,16.51
2017-05-13T03:51:02.019Z,16.5
2017-05-13T03:51:28.159Z,16.57
2017-05-13T03:51:54.227Z,16.56
2017-05-13T03:52:20.389Z,16.56
2017-05-13T03:52:46.565Z,16.64
2017-05-13T03:53:12.699Z,16.54
2017-05-13T03:53:38.787Z,16.6
2017-05-13T03:54:04.883Z,16.5
2017-05-13T03:54:30.989Z,16.47
2017-05-13T03:54:57.082Z,16.54
2017-05-13T03:55:23.216Z,16.58
2017-05-13T03:55:49.312Z,16.57
2017-05-13T03:56:15.562Z,16.6
2017-05-13T03:56:41.652Z,16.58
2017-05-13T03:57:07.781Z,16.5
2017-05-13T03:57:33.881Z,16.56
2017-05-13T03:58:00.006Z,16.6
2017-05-13T03:58:26.125Z,16.54
2017-05-13T03:58:52.241Z,16.57
2017-05-13T03:59:18.378Z,16.58
2017-05-13T03:59:44.581Z,16.64
2017-05-13T04:00:10.718Z,16.6
2017-05-13T04:00:36.824Z,16.57
2017-05-13T04:01:02.926Z,16.72
2017-05-13T04:01:29.039Z,16.68
2017-05-13T04:01:55.190Z,16.66
2017-05-13T04:02:21.294Z,16.74
2017-05-13T04:02:47.408Z,16.72
2017-05-13T04:03:13.528Z,16.86
2017-05-13T04:03:39.656Z,16.78
2017-05-13T04:04:05.781Z,16.86
2017-05-13T04:04:31.907Z,16.76
2017-05-13T04:04:58.020Z,16.86
2017-05-13T04:05:24.175Z,16.79
2017-05-13T04:05:50.310Z,16.74
2017-05-13T04:06:16.446Z,16.75
2017-05-13T04:06:42.544Z,16.81
2017-05-13T04:07:08.652Z,16.76
2017-05-13T04:07:34.794Z,16.72
2017-05-13T04:08:00.914Z,16.74
2017-05-13T04:08:27.020Z,16.74
2017-05-13T04:08:53.163Z,16.81
2017-05-13T04:09:19.373Z,16.87
2017-05-13T04:09:45.513Z,16.78
2017-05-13T04:10:11.636Z,16.89
2017-05-13T04:10:37.769Z,16.87
2017-05-13T04:11:03.885Z,16.79
2017-05-13T04:11:30.023Z,16.75
2017-05-13T04:11:56.131Z,16.79
2017-05-13T04:12:22.252Z,16.72
2017-05-13T04:12:48.414Z,16.74
2017-05-13T04:13:14.552Z,16.84
2017-05-13T04:13:40.651Z,16.76
2017-05-13T04:14:06.762Z,16.74
2017-05-13T04:14:32.897Z,16.71
2017-05-13T04:14:58.992Z,16.83
2017-05-13T04:15:25.125Z,16.84
2017-05-13T04:15:51.218Z,16.68
2017-05-13T04:16:17.332Z,16.68
2017-05-13T04:16:43.442Z,16.68
2017-05-13T04:17:09.582Z,16.74
2017-05-13T04:17:35.653Z,16.75
2017-05-13T04:18:01.788Z,16.74
2017-05-13T04:18:27.912Z,16.64
2017-05-13T04:18:54.029Z,16.71
2017-05-13T04:19:20.157Z,16.75
2017-05-13T04:19:46.362Z,16.75
2017-05-13T04:20:12.463Z,16.71
2017-05-13T04:20:38.560Z,16.74
2017-05-13T04:21:04.652Z,16.78
2017-05-13T04:21:30.812Z,16.78
2017-05-13T04:21:56.940Z,16.76
2017-05-13T04:22:23.054Z,16.78
2017-05-13T04:22:49.156Z,16.79
2017-05-13T04:23:15.318Z,16.79
2017-05-13T04:23:41.434Z,16.9
2017-05-13T04:24:07.558Z,16.79
2017-05-13T04:24:33.692Z,16.91
2017-05-13T04:24:59.807Z,16.94
2017-05-13T04:25:25.925Z,16.96
2017-05-13T04:25:52.019Z,17.06
2017-05-13T04:26:18.120Z,16.99
2017-05-13T04:26:44.225Z,17.02
2017-05-13T04:27:10.344Z,17.05
2017-05-13T04:27:36.466Z,17.01
2017-05-13T04:28:02.658Z,16.96
2017-05-13T04:28:28.777Z,16.94
2017-05-13T04:28:54.904Z,16.87
2017-05-13T04:29:21.069Z,16.87
2017-05-13T04:29:47.218Z,16.89
2017-05-13T04:30:13.357Z,17.02
2017-05-13T04:30:39.495Z,16.99
2017-05-13T04:31:05.592Z,17.04
2017-05-13T04:31:31.695Z,16.94
2017-05-13T04:31:57.786Z,17.08
2017-05-13T04:32:23.908Z,17.11
2017-05-13T04:32:50.016Z,17.05
2017-05-13T04:33:16.131Z,17.11
2017-05-13T04:33:42.224Z,17.09
2017-05-13T04:34:08.332Z,17.11
2017-05-13T04:34:34.482Z,17.22
2017-05-13T04:35:00.596Z,17.22
2017-05-13T04:35:26.704Z,17.16
2017-05-13T04:35:52.832Z,17.11
2017-05-13T04:36:18.945Z,17.15
2017-05-13T04:36:45.047Z,17.11
2017-05-13T04:37:11.180Z,17.11
2017-05-13T04:37:37.264Z,17.15
2017-05-13T04:38:03.418Z,17.14
2017-05-13T04:38:29.553Z,17.14
2017-05-13T04:38:55.670Z,17.09
2017-05-13T04:39:21.790Z,17.09
2017-05-13T04:39:47.924Z,17.05
2017-05-13T04:40:14.042Z,17.01
2017-05-13T04:40:40.132Z,17.08
2017-05-13T04:41:06.265Z,17.04
2017-05-13T04:41:32.361Z,17.04
2017-05-13T04:41:58.474Z,16.93
2017-05-13T04:42:24.581Z,16.94
2017-05-13T04:42:50.700Z,17.02
2017-05-13T04:43:16.832Z,17.09
2017-05-13T04:43:42.953Z,17.09
2017-05-13T04:44:09.068Z,16.94
2017-05-13T04:44:35.204Z,16.94
2017-05-13T04:45:01.351Z,17.05
2017-05-13T04:45:27.442Z,17.09
2017-05-13T04:45:53.550Z,17.14
2017-05-13T04:46:19.649Z,17.09
2017-05-13T04:46:45.765Z,17.12
2017-05-13T04:47:11.896Z,17.12
2017-05-13T04:47:38.030Z,17.06
2017-05-13T04:48:04.125Z,17.06
2017-05-13T04:48:30.250Z,17.08
2017-05-13T04:48:56.367Z,17.12
2017-05-13T04:49:22.501Z,17.12
2017-05-13T04:49:48.655Z,17.23
2017-05-13T04:50:14.745Z,17.23
2017-05-13T04:50:40.849Z,17.19
2017-05-13T04:51:06.956Z,17.16
2017-05-13T04:51:33.043Z,17.16
2017-05-13T04:51:59.143Z,17.11
2017-05-13T04:52:25.248Z,17.12
2017-05-13T04:52:51.335Z,17.05
2017-05-13T04:53:17.457Z,17.14
2017-05-13T04:53:43.551Z,17.12
2017-05-13T04:54:09.654Z,17.12
2017-05-13T04:54:35.788Z,17.11
2017-05-13T04:55:01.902Z,17.11
2017-05-13T04:55:28.052Z,17.06
2017-05-13T04:55:54.129Z,16.96
2017-05-13T04:56:20.245Z,16.96
2017-05-13T04:56:46.367Z,17.06
2017-05-13T04:57:12.527Z,16.91
2017-05-13T04:57:38.646Z,16.99
2017-05-13T04:58:04.760Z,17.01
2017-05-13T04:58:30.871Z,17.01
2017-05-13T04:58:56.968Z,17.04
2017-05-13T04:59:23.107Z,16.9
2017-05-13T04:59:49.261Z,16.93
2017-05-13T05:00:15.389Z,16.96
2017-05-13T05:00:41.481Z,17.02
2017-05-13T05:01:07.581Z,17.08
2017-05-13T05:01:33.712Z,17.02
2017-05-13T05:01:59.800Z,16.97
2017-05-13T05:02:25.925Z,16.99
2017-05-13T05:02:52.032Z,16.99
2017-05-13T05:03:18.150Z,17.08
2017-05-13T05:03:44.297Z,17.08
2017-05-13T05:04:10.402Z,17.2
2017-05-13T05:04:36.495Z,17.16
2017-05-13T05:05:02.627Z,17.26
2017-05-13T05:05:28.742Z,17.23
2017-05-13T05:05:54.838Z,17.27
2017-05-13T05:06:20.974Z,17.23
2017-05-13T05:06:47.086Z,17.3
2017-05-13T05:07:13.206Z,17.12
2017-05-13T05:07:39.341Z,17.15
2017-05-13T05:08:05.460Z,17.16
2017-05-13T05:08:31.575Z,17.2
2017-05-13T05:08:57.708Z,17.2
2017-05-13T05:09:23.832Z,17.2
2017-05-13T05:09:49.923Z,17.23
2017-05-13T05:10:16.028Z,17.24
2017-05-13T05:10:42.120Z,17.27
2017-05-13T05:11:08.255Z,17.27
2017-05-13T05:11:34.350Z,17.33
2017-05-13T05:12:00.465Z,17.22
2017-05-13T05:12:26.573Z,17.2
2017-05-13T05:12:52.720Z,17.24
2017-05-13T05:13:18.836Z,17.27
2017-05-13T05:13:44.965Z,17.3
2017-05-13T05:14:11.124Z,17.33
2017-05-13T05:14:37.275Z,17.27
2017-05-13T05:15:03.365Z,17.29
2017-05-13T05:15:29.472Z,17.33
2017-05-13T05:15:55.566Z,17.36
2017-05-13T05:16:21.660Z,17.38
2017-05-13T05:16:47.776Z,17.33
2017-05-13T05:17:13.908Z,17.36
2017-05-13T05:17:40.086Z,17.31
2017-05-13T05:18:06.202Z,17.27
2017-05-13T05:18:32.308Z,17.14
2017-05-13T05:18:58.412Z,17.11
2017-05-13T05:19:24.499Z,17.19
2017-05-13T05:19:50.651Z,17.14
2017-05-13T05:20:16.786Z,17.2
2017-05-13T05:20:42.902Z,17.14
2017-05-13T05:21:09.002Z,17.27
2017-05-13T05:21:35.109Z,17.27
2017-05-13T05:22:01.200Z,17.2
2017-05-13T05:22:27.317Z,17.23
2017-05-13T05:22:53.425Z,17.15
2017-05-13T05:23:19.578Z,17.26
2017-05-13T05:23:45.668Z,17.24
2017-05-13T05:24:11.800Z,17.24
2017-05-13T05:24:37.925Z,17.29
2017-05-13T05:25:04.036Z,17.23
2017-05-13T05:25:30.141Z,17.33
2017-05-13T05:25:56.247Z,17.33
2017-05-13T05:26:22.360Z,17.33
2017-05-13T05:26:48.512Z,17.44
2017-05-13T05:27:14.656Z,17.42
2017-05-13T05:27:40.791Z,17.39
2017-05-13T05:28:06.972Z,17.49
2017-05-13T05:28:33.060Z,17.48
2017-05-13T05:28:59.164Z,17.45
2017-05-13T05:29:25.297Z,17.41
2017-05-13T05:29:51.409Z,17.45
2017-05-13T05:30:17.511Z,17.41
2017-05-13T05:30:43.617Z,17.41
2017-05-13T05:31:09.706Z,17.49
2017-05-13T05:31:35.803Z,17.44
2017-05-13T05:32:01.935Z,17.31
2017-05-13T05:32:28.030Z,17.29
2017-05-13T05:32:54.165Z,17.33
2017-05-13T05:33:20.325Z,17.36
2017-05-13T05:33:46.404Z,17.34
2017-05-13T05:34:12.564Z,17.36
2017-05-13T05:34:38.679Z,17.23
2017-05-13T05:35:04.799Z,17.26
2017-05-13T05:35:30.908Z,17.3
2017-05-13T05:35:56.997Z,17.29
2017-05-13T05:36:23.087Z,17.26
2017-05-13T05:36:49.223Z,17.22
2017-05-13T05:37:15.347Z,17.26